createdAt,value
2022-10-17T00:04:44.309Z,18.31
2022-10-17T00:09:45.767Z,18.38
2022-10-17T00:14:47.226Z,18.07
2022-10-17T00:19:48.681Z,18.13
2022-10-17T00:24:50.142Z,18.50
2022-10-17T00:29:51.816Z,18.51
2022-10-17T00:34:53.265Z,18.54
2022-10-17T00:39:54.707Z,18.46
2022-10-17T00:45:20.883Z,17.67
2022-10-17T00:50:22.337Z,17.99
2022-10-17T00:55:25.561Z,17.82
2022-10-17T01:00:27.113Z,18.08
2022-10-17T01:05:28.670Z,18.09
2022-10-17T01:10:33.112Z,17.43
2022-10-17T01:15:43.637Z,17.83
2022-10-17T01:21:09.429Z,17.31
2022-10-17T01:26:44.017Z,17.67
2022-10-17T01:31:46.977Z,17.78
2022-10-17T01:37:08.524Z,18.20
2022-10-17T01:42:25.740Z,18.39
2022-10-17T01:47:31.887Z,18.32
2022-10-17T01:52:38.685Z,18.36
2022-10-17T01:57:42.365Z,18.38
2022-10-17T02:02:43.949Z,18.36
2022-10-17T02:07:45.403Z,18.33
2022-10-17T02:13:07.509Z,17.69
2022-10-17T02:18:38.223Z,18.15
2022-10-17T02:23:52.115Z,18.04
2022-10-17T02:29:15.106Z,18.16
2022-10-17T02:34:30.693Z,18.37
2022-10-17T02:39:32.140Z,18.02
2022-10-17T02:44:33.584Z,17.85
2022-10-17T02:49:37.266Z,17.92
2022-10-17T02:54:43.692Z,18.22
2022-10-17T02:59:45.453Z,17.71
2022-10-17T03:04:46.959Z,18.00
2022-10-17T03:09:48.409Z,18.04
2022-10-17T03:14:49.855Z,18.30
2022-10-17T03:19:51.319Z,18.16
2022-10-17T03:24:52.779Z,18.53
2022-10-17T03:29:54.235Z,18.28
2022-10-17T03:34:55.681Z,18.50
2022-10-17T03:39:57.133Z,18.70
2022-10-17T03:44:58.580Z,18.67
2022-10-17T03:50:00.070Z,18.32
2022-10-17T03:55:01.535Z,18.65
2022-10-17T04:00:03.949Z,18.86
2022-10-17T04:05:05.818Z,18.71
2022-10-17T04:10:07.689Z,18.59
2022-10-17T04:15:09.544Z,18.53
2022-10-17T04:20:11.028Z,18.50
2022-10-17T04:25:12.482Z,18.17
2022-10-17T04:30:13.955Z,18.22
2022-10-17T04:35:15.462Z,17.62
2022-10-17T04:40:16.996Z,18.00
2022-10-17T04:45:18.461Z,17.71
2022-10-17T04:50:19.910Z,17.82
2022-10-17T04:55:21.363Z,17.83
2022-10-17T05:00:22.816Z,17.98
2022-10-17T05:05:24.294Z,17.10
2022-10-17T05:10:25.732Z,17.45
2022-10-17T05:15:27.180Z,17.51
2022-10-17T05:20:28.625Z,17.78
2022-10-17T05:25:30.079Z,17.96
2022-10-17T05:30:35.192Z,17.64
2022-10-17T05:35:38.954Z,18.09
2022-10-17T05:40:40.404Z,17.88
2022-10-17T05:45:41.901Z,17.67
2022-10-17T05:50:43.362Z,17.42
2022-10-17T05:55:44.809Z,17.21
2022-10-17T06:05:52.642Z,17.32
2022-10-17T06:10:54.102Z,17.56
2022-10-17T06:15:55.569Z,17.30
2022-10-17T06:21:07.824Z,18.25
2022-10-17T06:26:09.264Z,17.74
2022-10-17T06:31:13.121Z,18.05
2022-10-17T06:36:14.757Z,17.88
2022-10-17T06:41:16.623Z,17.98
2022-10-17T06:46:18.652Z,18.01
2022-10-17T06:51:20.129Z,17.97
2022-10-17T06:56:21.589Z,18.03
2022-10-17T07:01:23.091Z,18.19
2022-10-17T07:06:24.699Z,17.71
2022-10-17T07:11:26.148Z,17.80
2022-10-17T07:16:27.910Z,17.72
2022-10-17T07:21:29.423Z,18.23
2022-10-17T07:26:30.872Z,18.41
2022-10-17T07:31:32.316Z,18.33
2022-10-17T07:36:33.789Z,18.19
2022-10-17T07:41:35.249Z,17.84
2022-10-17T07:46:36.704Z,18.34
2022-10-17T07:51:38.232Z,18.61
2022-10-17T07:56:39.699Z,18.70
2022-10-17T08:01:41.159Z,19.01
2022-10-17T08:06:42.628Z,19.15
2022-10-17T08:11:44.185Z,18.68
2022-10-17T08:16:45.700Z,18.93
2022-10-17T08:21:47.159Z,18.75
2022-10-17T08:26:51.710Z,19.01
2022-10-17T08:31:58.512Z,18.86
2022-10-17T08:37:03.007Z,19.41
2022-10-17T08:42:26.957Z,19.37
2022-10-17T08:47:40.962Z,19.23
2022-10-17T08:52:51.792Z,19.08
2022-10-17T08:57:53.271Z,19.62
2022-10-17T09:03:15.978Z,19.79
2022-10-17T09:08:22.666Z,19.65
2022-10-17T09:13:32.742Z,19.70
2022-10-17T09:18:43.070Z,20.06
2022-10-17T09:23:53.304Z,19.83
2022-10-17T09:29:01.158Z,20.07
2022-10-17T09:34:02.802Z,20.27
2022-10-17T09:39:22.386Z,19.82
2022-10-17T09:44:25.820Z,20.02
2022-10-17T09:49:33.359Z,19.81
2022-10-17T09:54:50.416Z,20.07
2022-10-17T10:00:02.503Z,20.43
2022-10-17T10:05:17.224Z,20.60
2022-10-17T10:10:27.779Z,20.77
2022-10-17T10:15:32.422Z,20.68
2022-10-17T10:20:35.655Z,20.65
2022-10-17T10:25:37.120Z,20.59
2022-10-17T10:30:39.934Z,20.81
2022-10-17T10:35:41.659Z,20.64
2022-10-17T10:40:48.068Z,20.80
2022-10-17T10:45:49.573Z,20.66
2022-10-17T10:51:12.424Z,20.28
2022-10-17T10:56:24.707Z,20.21
2022-10-17T11:02:13.128Z,20.60
2022-10-17T11:07:15.994Z,20.19
2022-10-17T11:12:20.917Z,20.32
2022-10-17T11:17:35.120Z,20.33
2022-10-17T11:22:47.926Z,20.52
2022-10-17T11:27:49.430Z,20.40
2022-10-17T11:32:53.820Z,20.33
2022-10-17T11:38:24.437Z,19.55
2022-10-17T11:43:32.330Z,20.02
2022-10-17T11:49:07.618Z,19.67
2022-10-17T11:54:13.781Z,19.35
2022-10-17T11:59:38.237Z,20.24
2022-10-17T12:04:49.622Z,20.13
2022-10-17T12:09:54.318Z,20.31
2022-10-17T12:15:24.309Z,20.57
2022-10-17T12:20:27.728Z,20.45
2022-10-17T12:25:32.046Z,20.49
2022-10-17T12:30:33.662Z,19.65
2022-10-17T12:35:36.372Z,20.21
2022-10-17T12:40:37.684Z,19.64
2022-10-17T12:45:58.062Z,20.39
2022-10-17T12:56:46.720Z,20.50
2022-10-17T13:01:50.977Z,20.17
2022-10-17T13:06:54.326Z,20.48
2022-10-17T13:11:57.463Z,20.15
2022-10-17T13:17:00.730Z,20.52
2022-10-17T13:22:06.900Z,20.63
2022-10-17T13:27:25.547Z,20.49
2022-10-17T13:32:34.555Z,20.51
2022-10-17T13:37:36.139Z,20.62
2022-10-17T13:42:38.951Z,20.76
2022-10-17T13:47:40.426Z,20.40
2022-10-17T13:52:41.902Z,19.69
2022-10-17T13:57:43.354Z,20.47
2022-10-17T14:02:44.846Z,20.81
2022-10-17T14:08:15.110Z,20.03
2022-10-17T14:13:21.537Z,20.67
2022-10-17T14:18:36.467Z,20.60
2022-10-17T14:23:40.391Z,20.56
2022-10-17T14:28:43.360Z,20.02
2022-10-17T14:33:50.446Z,20.34
2022-10-17T14:38:52.754Z,20.51
2022-10-17T14:44:01.980Z,20.47
2022-10-17T14:49:06.193Z,20.29
2022-10-17T14:54:25.057Z,20.41
2022-10-17T15:04:47.848Z,20.11
2022-10-17T15:09:50.251Z,20.27
2022-10-17T15:14:51.805Z,20.11
2022-10-17T15:19:53.330Z,19.93
2022-10-17T15:24:54.816Z,19.72
2022-10-17T15:29:56.269Z,19.96
2022-10-17T15:34:57.774Z,19.50
2022-10-17T15:39:59.228Z,20.13
2022-10-17T15:45:00.717Z,19.83
2022-10-17T15:50:02.258Z,20.19
2022-10-17T15:55:05.535Z,20.24
2022-10-17T16:00:16.370Z,20.23
2022-10-17T16:05:23.075Z,19.18
2022-10-17T16:10:25.862Z,19.36
2022-10-17T16:15:27.967Z,19.58
2022-10-17T16:20:29.462Z,19.98
2022-10-17T16:25:31.270Z,20.12
2022-10-17T16:30:32.815Z,19.84
2022-10-17T16:35:36.762Z,20.12
2022-10-17T16:40:40.114Z,19.90
2022-10-17T16:45:41.576Z,19.50
2022-10-17T16:50:43.033Z,19.29
2022-10-17T16:55:44.479Z,19.40
2022-10-17T17:00:45.998Z,19.61
2022-10-17T17:05:51.744Z,19.24
2022-10-17T17:10:55.292Z,19.37
2022-10-17T17:16:06.977Z,18.81
2022-10-17T17:21:09.099Z,19.48
2022-10-17T17:26:20.858Z,19.42
2022-10-17T17:31:24.359Z,19.36
2022-10-17T17:36:30.565Z,19.26
2022-10-17T17:41:32.114Z,19.54
2022-10-17T17:46:33.570Z,19.71
2022-10-17T17:51:37.406Z,19.89
2022-10-17T17:56:38.881Z,19.44
2022-10-17T18:01:40.445Z,19.22
2022-10-17T18:06:42.006Z,19.49
2022-10-17T18:11:43.452Z,19.54
2022-10-17T18:16:44.909Z,19.37
2022-10-17T18:21:46.390Z,19.40
2022-10-17T18:26:47.849Z,19.19
2022-10-17T18:31:49.397Z,19.76
2022-10-17T18:36:52.769Z,19.50
2022-10-17T18:41:54.342Z,19.24
2022-10-17T18:46:58.563Z,19.29
2022-10-17T18:52:02.963Z,19.40
2022-10-17T18:57:04.554Z,18.49
2022-10-17T19:02:06.543Z,19.05
2022-10-17T19:07:08.089Z,19.54
2022-10-17T19:12:09.545Z,19.38
2022-10-17T19:17:10.994Z,19.62
2022-10-17T19:22:12.450Z,19.50
2022-10-17T19:27:13.932Z,19.78
2022-10-17T19:32:17.933Z,18.36
2022-10-17T19:37:22.175Z,19.48
2022-10-17T19:42:23.685Z,19.30
2022-10-17T19:47:25.318Z,19.22
2022-10-17T19:52:27.649Z,18.77
2022-10-17T19:57:29.239Z,18.52
2022-10-17T20:02:30.913Z,18.99
2022-10-17T20:07:32.563Z,19.03
2022-10-17T20:12:34.224Z,19.40
2022-10-17T20:17:35.701Z,19.07
2022-10-17T20:22:37.176Z,19.56
2022-10-17T20:27:38.658Z,18.93
2022-10-17T20:32:40.126Z,19.09
2022-10-17T20:37:42.737Z,19.20
2022-10-17T20:42:44.553Z,18.05
2022-10-17T20:47:52.327Z,19.15
2022-10-17T20:53:10.974Z,18.92
2022-10-17T20:58:15.456Z,18.76
2022-10-17T21:03:16.904Z,18.42
2022-10-17T21:08:18.352Z,18.85
2022-10-17T21:13:19.796Z,18.55
2022-10-17T21:18:21.237Z,18.48
2022-10-17T21:23:22.720Z,18.76
2022-10-17T21:28:24.177Z,19.20
2022-10-17T21:33:25.643Z,18.68
2022-10-17T21:38:27.089Z,19.08
2022-10-17T21:43:28.558Z,19.50
2022-10-17T21:48:30.013Z,18.31
2022-10-17T21:53:31.493Z,18.55
2022-10-17T21:58:33.455Z,19.21
2022-10-17T22:03:35.638Z,19.51
2022-10-17T22:08:36.956Z,19.36
2022-10-17T22:13:38.450Z,19.48
2022-10-17T22:18:40.017Z,19.52
2022-10-17T22:23:42.225Z,18.90
2022-10-17T22:28:43.675Z,18.97
2022-10-17T22:33:45.144Z,19.15
2022-10-17T22:38:46.593Z,19.01
2022-10-17T22:43:48.164Z,19.20
2022-10-17T22:48:49.643Z,19.03
2022-10-17T22:53:51.106Z,18.50
2022-10-17T22:58:52.599Z,18.90
2022-10-17T23:03:54.147Z,18.32
2022-10-17T23:08:55.649Z,18.33
2022-10-17T23:13:57.140Z,18.32
2022-10-17T23:18:58.646Z,18.89
2022-10-17T23:24:00.095Z,18.41
2022-10-17T23:29:01.608Z,17.88
2022-10-17T23:34:03.163Z,18.82
2022-10-17T23:39:05.484Z,19.08
2022-10-17T23:44:06.974Z,18.93
2022-10-17T23:49:08.430Z,18.16
2022-10-17T23:54:09.871Z,18.69
2022-10-17T23:59:11.371Z,18.90
